sensor_id;sensor_type;location;lat;lon;timestamp;pressure;altitude;pressure_sealevel;temperature;humidity
39793;BME280;26080;42.264;24.536;2022-09-28T00:03:35;98223.91;;;14.38;100.00
39793;BME280;26080;42.264;24.536;2022-09-28T00:06:03;98223.47;;;14.44;100.00
39793;BME280;26080;42.264;24.536;2022-09-28T00:08:29;98218.78;;;14.48;100.00
39793;BME280;26080;42.264;24.536;2022-09-28T00:10:55;98216.97;;;14.37;100.00
39793;BME280;26080;42.264;24.536;2022-09-28T00:13:21;98213.88;;;14.32;100.00
39793;BME280;26080;42.264;24.536;2022-09-28T00:15:47;98211.38;;;14.31;100.00
39793;BME280;26080;42.264;24.536;2022-09-28T00:18:12;98205.75;;;14.24;100.00
39793;BME280;26080;42.264;24.536;2022-09-28T00:20:37;98210.31;;;14.22;100.00
39793;BME280;26080;42.264;24.536;2022-09-28T00:23:03;98210.56;;;14.19;100.00
39793;BME280;26080;42.264;24.536;2022-09-28T00:25:29;98205.53;;;14.16;100.00
39793;BME280;26080;42.264;24.536;2022-09-28T00:27:55;98209.47;;;14.10;100.00
39793;BME280;26080;42.264;24.536;2022-09-28T00:30:21;98214.41;;;14.04;100.00
39793;BME280;26080;42.264;24.536;2022-09-28T00:32:47;98219.66;;;14.04;100.00
39793;BME280;26080;42.264;24.536;2022-09-28T00:35:12;98212.97;;;14.00;100.00
39793;BME280;26080;42.264;24.536;2022-09-28T00:37:38;98217.03;;;13.92;100.00
39793;BME280;26080;42.264;24.536;2022-09-28T00:40:04;98205.31;;;13.74;100.00
39793;BME280;26080;42.264;24.536;2022-09-28T00:42:29;98209.47;;;13.66;100.00
39793;BME280;26080;42.264;24.536;2022-09-28T00:44:56;98215.94;;;13.73;100.00
39793;BME280;26080;42.264;24.536;2022-09-28T00:47:41;98217.72;;;13.83;100.00
39793;BME280;26080;42.264;24.536;2022-09-28T00:55:03;98193.94;;;13.62;100.00
39793;BME280;26080;42.264;24.536;2022-09-28T00:57:30;98192.84;;;13.54;100.00
39793;BME280;26080;42.264;24.536;2022-09-28T00:59:58;98194.16;;;13.48;100.00
39793;BME280;26080;42.264;24.536;2022-09-28T01:02:25;98194.72;;;13.41;100.00
39793;BME280;26080;42.264;24.536;2022-09-28T01:04:50;98203.72;;;13.49;100.00
39793;BME280;26080;42.264;24.536;2022-09-28T01:07:17;98198.34;;;13.51;100.00
39793;BME280;26080;42.264;24.536;2022-09-28T01:09:43;98194.41;;;13.45;100.00
39793;BME280;26080;42.264;24.536;2022-09-28T01:12:10;98191.72;;;13.23;100.00
39793;BME280;26080;42.264;24.536;2022-09-28T01:14:36;98187.84;;;13.16;100.00
39793;BME280;26080;42.264;24.536;2022-09-28T01:18:06;98184.84;;;13.09;100.00
39793;BME280;26080;42.264;24.536;2022-09-28T01:25:52;98198.53;;;13.01;100.00
39793;BME280;26080;42.264;24.536;2022-09-28T01:28:28;98199.34;;;12.91;100.00
39793;BME280;26080;42.264;24.536;2022-09-28T01:33:33;98196.56;;;12.81;100.00
39793;BME280;26080;42.264;24.536;2022-09-28T01:36:09;98199.06;;;12.83;100.00
39793;BME280;26080;42.264;24.536;2022-09-28T01:38:43;98173.94;;;12.67;100.00
39793;BME280;26080;42.264;24.536;2022-09-28T01:41:11;98189.97;;;12.75;100.00
39793;BME280;26080;42.264;24.536;2022-09-28T01:43:39;98206.59;;;12.76;100.00
39793;BME280;26080;42.264;24.536;2022-09-28T01:48:47;98207.59;;;12.97;100.00
39793;BME280;26080;42.264;24.536;2022-09-28T01:51:20;98204.78;;;12.77;100.00
39793;BME280;26080;42.264;24.536;2022-09-28T01:53:52;98192.03;;;12.59;100.00
39793;BME280;26080;42.264;24.536;2022-09-28T01:56:27;98189.16;;;12.51;100.00
39793;BME280;26080;42.264;24.536;2022-09-28T01:59:02;98190.81;;;12.52;100.00
39793;BME280;26080;42.264;24.536;2022-09-28T02:01:36;98192.88;;;12.60;100.00
39793;BME280;26080;42.264;24.536;2022-09-28T02:04:16;98188.72;;;12.44;100.00
39793;BME280;26080;42.264;24.536;2022-09-28T02:06:51;98194.28;;;12.53;100.00
39793;BME280;26080;42.264;24.536;2022-09-28T02:09:24;98193.94;;;12.57;100.00
39793;BME280;26080;42.264;24.536;2022-09-28T02:11:58;98195.22;;;12.52;100.00
39793;BME280;26080;42.264;24.536;2022-09-28T02:14:25;98193.72;;;12.60;100.00
39793;BME280;26080;42.264;24.536;2022-09-28T02:16:53;98193.09;;;12.57;100.00
39793;BME280;26080;42.264;24.536;2022-09-28T02:19:23;98194.66;;;12.59;100.00
39793;BME280;26080;42.264;24.536;2022-09-28T02:21:53;98198.03;;;12.61;100.00
39793;BME280;26080;42.264;24.536;2022-09-28T02:24:26;98215.66;;;12.59;100.00
39793;BME280;26080;42.264;24.536;2022-09-28T02:26:54;98212.91;;;12.50;100.00
39793;BME280;26080;42.264;24.536;2022-09-28T02:29:23;98205.31;;;12.45;100.00
39793;BME280;26080;42.264;24.536;2022-09-28T02:31:50;98205.31;;;12.45;100.00
39793;BME280;26080;42.264;24.536;2022-09-28T02:34:15;98207.84;;;12.46;100.00
39793;BME280;26080;42.264;24.536;2022-09-28T02:36:41;98193.78;;;12.48;100.00
39793;BME280;26080;42.264;24.536;2022-09-28T02:39:15;98195.06;;;12.42;100.00
39793;BME280;26080;42.264;24.536;2022-09-28T02:42:10;98199.31;;;12.19;100.00
39793;BME280;26080;42.264;24.536;2022-09-28T02:53:07;98208.22;;;11.54;100.00
39793;BME280;26080;42.264;24.536;2022-09-28T02:55:42;98205.81;;;11.51;100.00
39793;BME280;26080;42.264;24.536;2022-09-28T03:01:30;98211.56;;;11.44;100.00
39793;BME280;26080;42.264;24.536;2022-09-28T03:07:04;98205.38;;;11.45;100.00
39793;BME280;26080;42.264;24.536;2022-09-28T03:09:44;98204.84;;;11.65;100.00
39793;BME280;26080;42.264;24.536;2022-09-28T03:12:14;98211.78;;;11.53;100.00
39793;BME280;26080;42.264;24.536;2022-09-28T03:14:42;98200.22;;;11.56;100.00
39793;BME280;26080;42.264;24.536;2022-09-28T03:17:09;98200.16;;;11.83;100.00
39793;BME280;26080;42.264;24.536;2022-09-28T03:19:34;98197.16;;;11.75;100.00
39793;BME280;26080;42.264;24.536;2022-09-28T03:22:01;98201.47;;;11.76;100.00
39793;BME280;26080;42.264;24.536;2022-09-28T03:24:26;98200.16;;;11.83;100.00
39793;BME280;26080;42.264;24.536;2022-09-28T03:26:52;98202.41;;;11.75;100.00
39793;BME280;26080;42.264;24.536;2022-09-28T03:29:17;98199.06;;;11.73;100.00
39793;BME280;26080;42.264;24.536;2022-09-28T03:31:44;98203.06;;;11.66;100.00
39793;BME280;26080;42.264;24.536;2022-09-28T03:34:10;98208.31;;;11.66;100.00
39793;BME280;26080;42.264;24.536;2022-09-28T03:36:35;98204.19;;;11.62;100.00
39793;BME280;26080;42.264;24.536;2022-09-28T03:39:01;98203.38;;;11.74;100.00
39793;BME280;26080;42.264;24.536;2022-09-28T03:41:26;98207.06;;;11.84;100.00
39793;BME280;26080;42.264;24.536;2022-09-28T03:43:52;98212.91;;;11.75;100.00
39793;BME280;26080;42.264;24.536;2022-09-28T03:46:18;98227.69;;;11.76;100.00
39793;BME280;26080;42.264;24.536;2022-09-28T03:48:43;98236.28;;;11.78;100.00
39793;BME280;26080;42.264;24.536;2022-09-28T03:51:10;98239.06;;;11.89;100.00
39793;BME280;26080;42.264;24.536;2022-09-28T03:53:36;98238.66;;;11.82;100.00
39793;BME280;26080;42.264;24.536;2022-09-28T03:56:08;98243.78;;;11.97;100.00
39793;BME280;26080;42.264;24.536;2022-09-28T03:58:35;98252.28;;;12.00;100.00
39793;BME280;26080;42.264;24.536;2022-09-28T04:01:02;98257.28;;;11.78;100.00
39793;BME280;26080;42.264;24.536;2022-09-28T04:03:28;98264.84;;;11.57;100.00
39793;BME280;26080;42.264;24.536;2022-09-28T04:05:54;98253.28;;;11.34;100.00
39793;BME280;26080;42.264;24.536;2022-09-28T04:08:19;98263.38;;;11.40;100.00
39793;BME280;26080;42.264;24.536;2022-09-28T04:10:45;98268.19;;;11.46;100.00
39793;BME280;26080;42.264;24.536;2022-09-28T04:13:11;98254.78;;;11.38;100.00
39793;BME280;26080;42.264;24.536;2022-09-28T04:15:37;98256.59;;;11.23;100.00
39793;BME280;26080;42.264;24.536;2022-09-28T04:18:10;98259.97;;;11.13;100.00
39793;BME280;26080;42.264;24.536;2022-09-28T04:20:35;98256.91;;;11.19;100.00
39793;BME280;26080;42.264;24.536;2022-09-28T04:23:01;98266.06;;;11.26;100.00
39793;BME280;26080;42.264;24.536;2022-09-28T04:25:29;98268.06;;;11.35;100.00
39793;BME280;26080;42.264;24.536;2022-09-28T04:27:58;98264.00;;;11.44;100.00
39793;BME280;26080;42.264;24.536;2022-09-28T04:30:41;98269.47;;;11.53;100.00
39793;BME280;26080;42.264;24.536;2022-09-28T04:33:07;98267.44;;;11.44;100.00
39793;BME280;26080;42.264;24.536;2022-09-28T04:35:33;98268.38;;;11.31;100.00
39793;BME280;26080;42.264;24.536;2022-09-28T04:37:59;98258.00;;;11.29;100.00
39793;BME280;26080;42.264;24.536;2022-09-28T04:40:24;98258.94;;;11.28;100.00
39793;BME280;26080;42.264;24.536;2022-09-28T04:42:54;98259.78;;;11.41;100.00
39793;BME280;26080;42.264;24.536;2022-09-28T04:45:20;98262.00;;;11.47;100.00
39793;BME280;26080;42.264;24.536;2022-09-28T04:47:45;98253.28;;;11.47;100.00
39793;BME280;26080;42.264;24.536;2022-09-28T04:50:11;98260.75;;;11.78;100.00
39793;BME280;26080;42.264;24.536;2022-09-28T04:52:36;98249.75;;;11.86;100.00
39793;BME280;26080;42.264;24.536;2022-09-28T04:55:02;98262.66;;;11.89;100.00
39793;BME280;26080;42.264;24.536;2022-09-28T04:57:28;98268.59;;;11.78;100.00
39793;BME280;26080;42.264;24.536;2022-09-28T04:59:53;98263.41;;;11.91;100.00
39793;BME280;26080;42.264;24.536;2022-09-28T05:02:18;98267.19;;;11.87;100.00
39793;BME280;26080;42.264;24.536;2022-09-28T05:04:44;98276.59;;;11.77;100.00
39793;BME280;26080;42.264;24.536;2022-09-28T05:07:10;98266.84;;;11.53;100.00
39793;BME280;26080;42.264;24.536;2022-09-28T05:09:35;98301.34;;;11.73;100.00
39793;BME280;26080;42.264;24.536;2022-09-28T05:12:00;98299.00;;;11.82;100.00
39793;BME280;26080;42.264;24.536;2022-09-28T05:14:26;98301.72;;;11.81;100.00
39793;BME280;26080;42.264;24.536;2022-09-28T05:16:51;98295.31;;;11.85;100.00
39793;BME280;26080;42.264;24.536;2022-09-28T05:19:17;98292.69;;;11.85;100.00
39793;BME280;26080;42.264;24.536;2022-09-28T05:21:44;98293.00;;;11.93;100.00
39793;BME280;26080;42.264;24.536;2022-09-28T05:24:10;98297.22;;;11.96;100.00
39793;BME280;26080;42.264;24.536;2022-09-28T05:26:35;98303.19;;;11.98;100.00
39793;BME280;26080;42.264;24.536;2022-09-28T05:29:01;98303.28;;;11.96;100.00
39793;BME280;26080;42.264;24.536;2022-09-28T05:31:26;98300.34;;;12.01;100.00
39793;BME280;26080;42.264;24.536;2022-09-28T05:33:52;98294.25;;;12.00;100.00
39793;BME280;26080;42.264;24.536;2022-09-28T05:36:18;98295.81;;;12.03;100.00
39793;BME280;26080;42.264;24.536;2022-09-28T05:38:44;98262.88;;;11.86;100.00
39793;BME280;26080;42.264;24.536;2022-09-28T05:41:09;98278.50;;;12.00;100.00
39793;BME280;26080;42.264;24.536;2022-09-28T05:43:35;98301.78;;;12.18;100.00
39793;BME280;26080;42.264;24.536;2022-09-28T05:46:00;98298.97;;;12.21;100.00
39793;BME280;26080;42.264;24.536;2022-09-28T05:48:26;98296.53;;;12.30;100.00
39793;BME280;26080;42.264;24.536;2022-09-28T05:50:53;98266.53;;;12.22;100.00
39793;BME280;26080;42.264;24.536;2022-09-28T05:53:18;98304.91;;;12.48;100.00
39793;BME280;26080;42.264;24.536;2022-09-28T05:55:44;98314.63;;;12.59;100.00
39793;BME280;26080;42.264;24.536;2022-09-28T05:58:09;98327.97;;;12.68;100.00
39793;BME280;26080;42.264;24.536;2022-09-28T06:00:35;98317.75;;;12.77;100.00
39793;BME280;26080;42.264;24.536;2022-09-28T06:03:07;98311.09;;;12.84;100.00
39793;BME280;26080;42.264;24.536;2022-09-28T06:05:36;98289.47;;;12.80;100.00
39793;BME280;26080;42.264;24.536;2022-09-28T06:08:04;98305.50;;;13.12;100.00
39793;BME280;26080;42.264;24.536;2022-09-28T06:10:30;98293.78;;;13.29;100.00
39793;BME280;26080;42.264;24.536;2022-09-28T06:12:57;98305.81;;;13.44;100.00
39793;BME280;26080;42.264;24.536;2022-09-28T06:15:24;98300.47;;;13.57;100.00
39793;BME280;26080;42.264;24.536;2022-09-28T06:17:58;98287.84;;;13.73;100.00
39793;BME280;26080;42.264;24.536;2022-09-28T06:20:28;98295.84;;;13.83;100.00
39793;BME280;26080;42.264;24.536;2022-09-28T06:22:55;98288.44;;;13.88;100.00
39793;BME280;26080;42.264;24.536;2022-09-28T06:25:22;98317.09;;;14.15;100.00
39793;BME280;26080;42.264;24.536;2022-09-28T06:30:19;98326.81;;;14.48;100.00
39793;BME280;26080;42.264;24.536;2022-09-28T06:32:44;98319.97;;;14.68;100.00
39793;BME280;26080;42.264;24.536;2022-09-28T06:35:10;98328.06;;;14.98;100.00
39793;BME280;26080;42.264;24.536;2022-09-28T06:37:35;98329.22;;;15.05;100.00
39793;BME280;26080;42.264;24.536;2022-09-28T06:40:01;98323.22;;;15.15;100.00
39793;BME280;26080;42.264;24.536;2022-09-28T06:42:26;98316.94;;;15.27;100.00
39793;BME280;26080;42.264;24.536;2022-09-28T06:44:51;98316.06;;;15.37;100.00
39793;BME280;26080;42.264;24.536;2022-09-28T06:47:17;98330.16;;;15.48;100.00
39793;BME280;26080;42.264;24.536;2022-09-28T06:49:43;98326.31;;;15.52;100.00
39793;BME280;26080;42.264;24.536;2022-09-28T06:52:11;98339.81;;;15.69;100.00
39793;BME280;26080;42.264;24.536;2022-09-28T06:54:37;98333.25;;;15.85;100.00
39793;BME280;26080;42.264;24.536;2022-09-28T06:57:02;98336.78;;;15.95;100.00
39793;BME280;26080;42.264;24.536;2022-09-28T06:59:28;98320.88;;;16.06;100.00
39793;BME280;26080;42.264;24.536;2022-09-28T07:01:54;98324.38;;;16.16;100.00
39793;BME280;26080;42.264;24.536;2022-09-28T07:04:19;98327.78;;;16.28;100.00
39793;BME280;26080;42.264;24.536;2022-09-28T07:06:46;98326.03;;;16.38;100.00
39793;BME280;26080;42.264;24.536;2022-09-28T07:09:12;98316.69;;;16.34;100.00
39793;BME280;26080;42.264;24.536;2022-09-28T07:11:37;98333.03;;;16.49;100.00
39793;BME280;26080;42.264;24.536;2022-09-28T07:14:05;98319.88;;;16.58;100.00
39793;BME280;26080;42.264;24.536;2022-09-28T07:16:31;98321.81;;;16.66;100.00
39793;BME280;26080;42.264;24.536;2022-09-28T07:18:56;98317.56;;;16.75;100.00
39793;BME280;26080;42.264;24.536;2022-09-28T07:21:21;98314.69;;;16.87;100.00
39793;BME280;26080;42.264;24.536;2022-09-28T07:23:47;98317.78;;;17.02;100.00
39793;BME280;26080;42.264;24.536;2022-09-28T07:26:13;98325.44;;;17.15;100.00
39793;BME280;26080;42.264;24.536;2022-09-28T07:28:40;98318.19;;;17.27;100.00
39793;BME280;26080;42.264;24.536;2022-09-28T07:31:07;98319.91;;;17.28;100.00
39793;BME280;26080;42.264;24.536;2022-09-28T07:33:33;98326.16;;;17.36;100.00
39793;BME280;26080;42.264;24.536;2022-09-28T07:35:59;98319.75;;;17.48;100.00
39793;BME280;26080;42.264;24.536;2022-09-28T07:38:31;98320.72;;;17.57;100.00
39793;BME280;26080;42.264;24.536;2022-09-28T07:40:57;98310.28;;;17.56;100.00
39793;BME280;26080;42.264;24.536;2022-09-28T07:43:39;98312.53;;;17.70;100.00
39793;BME280;26080;42.264;24.536;2022-09-28T07:46:05;98310.97;;;17.77;100.00
39793;BME280;26080;42.264;24.536;2022-09-28T07:48:42;98317.38;;;17.84;100.00
39793;BME280;26080;42.264;24.536;2022-09-28T07:51:08;98321.78;;;18.13;100.00
39793;BME280;26080;42.264;24.536;2022-09-28T07:53:35;98321.63;;;18.24;100.00
39793;BME280;26080;42.264;24.536;2022-09-28T07:56:03;98305.84;;;18.22;100.00
39793;BME280;26080;42.264;24.536;2022-09-28T07:58:32;98316.78;;;18.47;100.00
39793;BME280;26080;42.264;24.536;2022-09-28T08:00:57;98322.75;;;18.49;100.00
39793;BME280;26080;42.264;24.536;2022-09-28T08:03:25;98323.56;;;18.59;100.00
39793;BME280;26080;42.264;24.536;2022-09-28T08:05:56;98327.19;;;18.68;100.00
39793;BME280;26080;42.264;24.536;2022-09-28T08:08:22;98328.81;;;18.78;100.00
39793;BME280;26080;42.264;24.536;2022-09-28T08:10:47;98325.78;;;18.91;100.00
39793;BME280;26080;42.264;24.536;2022-09-28T08:13:14;98334.84;;;18.98;100.00
39793;BME280;26080;42.264;24.536;2022-09-28T08:15:41;98329.06;;;19.03;100.00
39793;BME280;26080;42.264;24.536;2022-09-28T08:18:06;98326.38;;;19.12;100.00
39793;BME280;26080;42.264;24.536;2022-09-28T08:20:32;98340.66;;;19.47;100.00
39793;BME280;26080;42.264;24.536;2022-09-28T08:23:16;98348.13;;;19.61;100.00
39793;BME280;26080;42.264;24.536;2022-09-28T08:25:46;98347.13;;;19.62;100.00
39793;BME280;26080;42.264;24.536;2022-09-28T08:28:14;98352.88;;;19.58;100.00
39793;BME280;26080;42.264;24.536;2022-09-28T08:30:45;98348.50;;;19.66;100.00
39793;BME280;26080;42.264;24.536;2022-09-28T08:33:28;98342.72;;;19.71;100.00
39793;BME280;26080;42.264;24.536;2022-09-28T08:35:58;98336.97;;;19.75;100.00
39793;BME280;26080;42.264;24.536;2022-09-28T08:38:25;98339.88;;;19.90;100.00
39793;BME280;26080;42.264;24.536;2022-09-28T08:44:19;98338.50;;;20.04;100.00
39793;BME280;26080;42.264;24.536;2022-09-28T08:46:29;98342.34;;;20.09;100.00
39793;BME280;26080;42.264;24.536;2022-09-28T08:49:08;98334.31;;;20.27;100.00
39793;BME280;26080;42.264;24.536;2022-09-28T08:51:44;98339.91;;;20.42;100.00
39793;BME280;26080;42.264;24.536;2022-09-28T08:54:29;98337.94;;;20.44;100.00
39793;BME280;26080;42.264;24.536;2022-09-28T08:57:34;98331.78;;;20.44;100.00
39793;BME280;26080;42.264;24.536;2022-09-28T08:59:53;98336.31;;;20.51;100.00
39793;BME280;26080;42.264;24.536;2022-09-28T09:02:29;98328.88;;;20.63;100.00
39793;BME280;26080;42.264;24.536;2022-09-28T09:04:58;98328.78;;;20.73;100.00
39793;BME280;26080;42.264;24.536;2022-09-28T09:23:55;98315.81;;;21.36;100.00
39793;BME280;26080;42.264;24.536;2022-09-28T09:26:35;98306.84;;;21.53;100.00
39793;BME280;26080;42.264;24.536;2022-09-28T09:29:26;98313.19;;;21.61;100.00
39793;BME280;26080;42.264;24.536;2022-09-28T09:32:19;98307.84;;;21.69;100.00
39793;BME280;26080;42.264;24.536;2022-09-28T09:34:54;98316.19;;;21.74;100.00
39793;BME280;26080;42.264;24.536;2022-09-28T09:46:12;98296.84;;;21.96;100.00
39793;BME280;26080;42.264;24.536;2022-09-28T09:51:41;98299.50;;;22.12;100.00
39793;BME280;26080;42.264;24.536;2022-09-28T09:54:16;98282.84;;;21.94;98.73
39793;BME280;26080;42.264;24.536;2022-09-28T09:56:47;98296.16;;;22.18;94.85
39793;BME280;26080;42.264;24.536;2022-09-28T09:59:20;98267.34;;;22.14;92.76
39793;BME280;26080;42.264;24.536;2022-09-28T10:01:49;98279.97;;;22.28;91.39
39793;BME280;26080;42.264;24.536;2022-09-28T10:04:26;98284.47;;;22.28;90.02
39793;BME280;26080;42.264;24.536;2022-09-28T10:06:57;98277.59;;;22.41;88.04
39793;BME280;26080;42.264;24.536;2022-09-28T10:09:28;98275.41;;;22.45;90.04
39793;BME280;26080;42.264;24.536;2022-09-28T10:11:55;98275.06;;;22.48;90.55
39793;BME280;26080;42.264;24.536;2022-09-28T10:14:22;98274.84;;;22.58;85.50
39793;BME280;26080;42.264;24.536;2022-09-28T10:16:50;98267.50;;;22.60;87.93
39793;BME280;26080;42.264;24.536;2022-09-28T10:19:19;98273.94;;;22.73;87.86
39793;BME280;26080;42.264;24.536;2022-09-28T10:21:48;98265.25;;;22.80;88.60
39793;BME280;26080;42.264;24.536;2022-09-28T10:24:46;98261.88;;;22.94;83.53
39793;BME280;26080;42.264;24.536;2022-09-28T10:27:17;98257.78;;;23.06;87.60
39793;BME280;26080;42.264;24.536;2022-09-28T10:29:49;98249.69;;;23.14;85.55
39793;BME280;26080;42.264;24.536;2022-09-28T10:32:19;98255.38;;;23.19;86.80
39793;BME280;26080;42.264;24.536;2022-09-28T10:34:45;98249.28;;;23.25;84.76
39793;BME280;26080;42.264;24.536;2022-09-28T10:37:10;98243.03;;;23.18;81.59
39793;BME280;26080;42.264;24.536;2022-09-28T10:42:09;98243.41;;;23.30;81.06
39793;BME280;26080;42.264;24.536;2022-09-28T10:44:54;98238.56;;;23.33;79.46
39793;BME280;26080;42.264;24.536;2022-09-28T10:47:22;98234.88;;;23.34;79.06
39793;BME280;26080;42.264;24.536;2022-09-28T10:49:49;98233.50;;;23.39;79.63
39793;BME280;26080;42.264;24.536;2022-09-28T10:52:39;98231.56;;;23.32;78.94
39793;BME280;26080;42.264;24.536;2022-09-28T10:57:47;98220.63;;;23.57;77.33
39793;BME280;26080;42.264;24.536;2022-09-28T11:00:33;98226.31;;;23.62;77.42
39793;BME280;26080;42.264;24.536;2022-09-28T11:03:00;98225.16;;;23.79;78.00
39793;BME280;26080;42.264;24.536;2022-09-28T11:05:27;98219.34;;;23.90;76.38
39793;BME280;26080;42.264;24.536;2022-09-28T11:07:54;98216.69;;;23.90;75.57
39793;BME280;26080;42.264;24.536;2022-09-28T11:10:24;98210.94;;;23.79;73.11
39793;BME280;26080;42.264;24.536;2022-09-28T11:12:51;98196.38;;;23.67;75.11
39793;BME280;26080;42.264;24.536;2022-09-28T11:15:26;98210.69;;;23.88;78.39
39793;BME280;26080;42.264;24.536;2022-09-28T11:17:53;98205.25;;;23.97;76.68
39793;BME280;26080;42.264;24.536;2022-09-28T11:23:46;98185.69;;;24.11;73.23
39793;BME280;26080;42.264;24.536;2022-09-28T11:26:07;98188.66;;;24.16;74.02
39793;BME280;26080;42.264;24.536;2022-09-28T11:28:37;98191.88;;;24.26;74.65
39793;BME280;26080;42.264;24.536;2022-09-28T11:31:05;98183.84;;;24.26;66.37
39793;BME280;26080;42.264;24.536;2022-09-28T11:33:34;98179.97;;;24.43;69.07
39793;BME280;26080;42.264;24.536;2022-09-28T11:38:38;98174.78;;;24.57;69.89
39793;BME280;26080;42.264;24.536;2022-09-28T11:51:44;98150.16;;;24.46;71.90
39793;BME280;26080;42.264;24.536;2022-09-28T11:54:31;98168.94;;;24.68;72.11
39793;BME280;26080;42.264;24.536;2022-09-28T11:57:02;98158.22;;;24.68;67.41
39793;BME280;26080;42.264;24.536;2022-09-28T11:59:35;98156.69;;;24.80;67.41
39793;BME280;26080;42.264;24.536;2022-09-28T12:02:28;98158.22;;;24.68;67.21
39793;BME280;26080;42.264;24.536;2022-09-28T12:05:07;98155.53;;;24.89;66.83
39793;BME280;26080;42.264;24.536;2022-09-28T12:07:41;98147.50;;;24.89;63.79
39793;BME280;26080;42.264;24.536;2022-09-28T12:10:38;98142.09;;;24.83;64.54
39793;BME280;26080;42.264;24.536;2022-09-28T12:13:13;98139.78;;;24.79;68.01
39793;BME280;26080;42.264;24.536;2022-09-28T12:16:02;98135.34;;;24.87;67.08
39793;BME280;26080;42.264;24.536;2022-09-28T12:18:37;98127.91;;;25.03;62.17
39793;BME280;26080;42.264;24.536;2022-09-28T12:21:21;98124.50;;;25.16;62.21
39793;BME280;26080;42.264;24.536;2022-09-28T12:23:55;98133.88;;;25.05;63.45
39793;BME280;26080;42.264;24.536;2022-09-28T12:26:41;98126.88;;;25.04;64.64
39793;BME280;26080;42.264;24.536;2022-09-28T12:29:19;98128.09;;;25.02;65.93
39793;BME280;26080;42.264;24.536;2022-09-28T12:31:57;98130.66;;;25.10;66.18
39793;BME280;26080;42.264;24.536;2022-09-28T12:34:25;98127.41;;;25.21;64.60
39793;BME280;26080;42.264;24.536;2022-09-28T12:42:31;98127.88;;;25.25;61.56
39793;BME280;26080;42.264;24.536;2022-09-28T12:48:25;98125.97;;;25.47;57.63
39793;BME280;26080;42.264;24.536;2022-09-28T12:59:31;98109.75;;;25.55;54.69
39793;BME280;26080;42.264;24.536;2022-09-28T13:21:27;98111.53;;;25.76;52.06
39793;BME280;26080;42.264;24.536;2022-09-28T13:23:59;98111.31;;;25.71;52.98
39793;BME280;26080;42.264;24.536;2022-09-28T13:26:28;98110.91;;;25.74;52.70
39793;BME280;26080;42.264;24.536;2022-09-28T13:29:04;98108.19;;;25.67;53.11
39793;BME280;26080;42.264;24.536;2022-09-28T13:31:41;98110.03;;;25.66;53.93
39793;BME280;26080;42.264;24.536;2022-09-28T13:34:14;98092.56;;;25.49;54.52
39793;BME280;26080;42.264;24.536;2022-09-28T13:36:43;98114.09;;;25.56;56.81
39793;BME280;26080;42.264;24.536;2022-09-28T13:59:23;98105.13;;;25.70;53.66
39793;BME280;26080;42.264;24.536;2022-09-28T14:04:56;98105.16;;;25.77;53.82
39793;BME280;26080;42.264;24.536;2022-09-28T14:12:44;98106.72;;;25.99;56.56
39793;BME280;26080;42.264;24.536;2022-09-28T14:17:58;98111.97;;;26.20;56.77
39793;BME280;26080;42.264;24.536;2022-09-28T14:20:25;98113.63;;;26.28;54.31
39793;BME280;26080;42.264;24.536;2022-09-28T14:31:41;98103.72;;;26.22;49.59
39793;BME280;26080;42.264;24.536;2022-09-28T14:34:28;98109.00;;;26.02;50.04
39793;BME280;26080;42.264;24.536;2022-09-28T14:36:55;98113.44;;;25.82;52.32
39793;BME280;26080;42.264;24.536;2022-09-28T14:39:43;98114.72;;;25.58;53.45
39793;BME280;26080;42.264;24.536;2022-09-28T14:42:27;98114.59;;;25.38;54.56
39793;BME280;26080;42.264;24.536;2022-09-28T14:47:43;98116.56;;;25.01;56.65
39793;BME280;26080;42.264;24.536;2022-09-28T14:50:28;98092.81;;;24.77;57.20
39793;BME280;26080;42.264;24.536;2022-09-28T14:53:05;98116.09;;;24.76;58.06
39793;BME280;26080;42.264;24.536;2022-09-28T14:55:33;98114.56;;;24.67;58.32
39793;BME280;26080;42.264;24.536;2022-09-28T14:58:05;98109.13;;;24.61;59.15
39793;BME280;26080;42.264;24.536;2022-09-28T15:00:36;98119.94;;;24.52;59.46
39793;BME280;26080;42.264;24.536;2022-09-28T15:03:03;98118.88;;;24.47;60.05
39793;BME280;26080;42.264;24.536;2022-09-28T15:05:34;98118.81;;;24.40;60.14
39793;BME280;26080;42.264;24.536;2022-09-28T15:08:05;98114.44;;;24.39;60.47
39793;BME280;26080;42.264;24.536;2022-09-28T15:13:02;98121.84;;;24.37;61.88
39793;BME280;26080;42.264;24.536;2022-09-28T15:15:39;98121.84;;;24.37;61.77
39793;BME280;26080;42.264;24.536;2022-09-28T15:23:23;98114.59;;;24.31;63.69
39793;BME280;26080;42.264;24.536;2022-09-28T15:25:53;98124.81;;;24.42;63.76
39793;BME280;26080;42.264;24.536;2022-09-28T15:28:21;98124.81;;;24.42;63.67
39793;BME280;26080;42.264;24.536;2022-09-28T15:30:47;98125.81;;;24.41;64.42
39793;BME280;26080;42.264;24.536;2022-09-28T15:33:24;98128.22;;;24.36;65.48
39793;BME280;26080;42.264;24.536;2022-09-28T15:36:14;98134.97;;;24.32;65.14
39793;BME280;26080;42.264;24.536;2022-09-28T15:38:42;98137.16;;;24.29;65.43
39793;BME280;26080;42.264;24.536;2022-09-28T15:41:08;98140.66;;;24.29;65.37
39793;BME280;26080;42.264;24.536;2022-09-28T15:43:35;98142.03;;;24.25;65.49
39793;BME280;26080;42.264;24.536;2022-09-28T15:46:20;98153.13;;;24.22;66.96
39793;BME280;26080;42.264;24.536;2022-09-28T15:48:49;98149.81;;;24.20;66.42
39793;BME280;26080;42.264;24.536;2022-09-28T15:51:18;98157.56;;;24.15;67.49
39793;BME280;26080;42.264;24.536;2022-09-28T15:54:01;98162.81;;;24.08;66.67